createdAt,value
2022-10-20T00:00:28.895Z,59.35
2022-10-20T00:02:58.568Z,59.00
2022-10-20T00:05:28.266Z,57.83
2022-10-20T00:07:57.919Z,58.10
2022-10-20T00:10:27.528Z,60.05
2022-10-20T00:12:57.134Z,60.05
2022-10-20T00:15:26.791Z,57.85
2022-10-20T00:17:56.722Z,57.42
2022-10-20T00:20:26.288Z,54.30
2022-10-20T00:22:55.875Z,52.67
2022-10-20T00:25:25.682Z,53.95
2022-10-20T00:27:55.420Z,56.22
2022-10-20T00:30:25.726Z,55.00
2022-10-20T00:32:55.942Z,58.38
2022-10-20T00:35:26.653Z,58.88
2022-10-20T00:37:56.408Z,58.03
2022-10-20T00:40:26.514Z,57.63
2022-10-20T00:42:56.464Z,57.72
2022-10-20T00:45:26.190Z,56.47
2022-10-20T00:47:59.994Z,53.05
2022-10-20T00:50:35.480Z,50.00
2022-10-20T00:53:06.048Z,47.03
2022-10-20T00:55:39.136Z,47.75
2022-10-20T00:58:09.589Z,44.75
2022-10-20T01:00:42.019Z,49.63
2022-10-20T01:03:18.522Z,45.95
2022-10-20T01:05:49.112Z,55.15
2022-10-20T01:08:19.249Z,45.58
2022-10-20T01:10:57.126Z,45.63
2022-10-20T01:13:52.413Z,48.72
2022-10-20T01:16:45.485Z,45.42
2022-10-20T01:19:50.870Z,47.22
2022-10-20T01:22:55.984Z,48.42
2022-10-20T01:25:58.692Z,65.00
2022-10-20T01:28:49.445Z,48.22
2022-10-20T01:31:44.460Z,103.93
2022-10-20T01:34:35.735Z,48.50
2022-10-20T01:37:10.614Z,49.13
2022-10-20T01:39:56.271Z,46.75
2022-10-20T01:42:28.213Z,47.33
2022-10-20T01:45:03.602Z,54.10
2022-10-20T01:47:38.280Z,46.42
2022-10-20T01:50:09.204Z,47.88
2022-10-20T01:52:39.933Z,47.15
2022-10-20T01:55:19.590Z,48.22
2022-10-20T01:57:51.321Z,47.45
2022-10-20T02:00:21.241Z,46.45
2022-10-20T02:03:02.832Z,46.42
2022-10-20T02:06:11.405Z,46.85
2022-10-20T02:08:46.265Z,49.35
2022-10-20T02:11:23.543Z,50.30
2022-10-20T02:13:57.517Z,50.10
2022-10-20T02:16:35.076Z,47.13
2022-10-20T02:19:07.676Z,48.90
2022-10-20T02:21:38.025Z,46.75
2022-10-20T02:24:10.691Z,48.65
2022-10-20T02:26:42.141Z,45.88
2022-10-20T02:29:22.767Z,46.05
2022-10-20T02:31:54.004Z,48.10
2022-10-20T02:34:29.615Z,43.20
2022-10-20T02:37:01.180Z,43.58
2022-10-20T02:39:32.001Z,46.97
2022-10-20T02:42:01.602Z,42.13
2022-10-20T02:44:31.389Z,44.15
2022-10-20T02:47:01.100Z,40.47
2022-10-20T02:49:30.816Z,41.65
2022-10-20T02:52:00.591Z,40.25
2022-10-20T02:54:30.347Z,38.80
2022-10-20T02:57:00.140Z,39.63
2022-10-20T02:59:29.809Z,38.90
2022-10-20T03:01:59.573Z,37.88
2022-10-20T03:04:29.355Z,39.13
2022-10-20T03:06:58.952Z,40.85
2022-10-20T03:09:28.689Z,40.75
2022-10-20T03:11:58.472Z,38.67
2022-10-20T03:14:28.083Z,35.53
2022-10-20T03:16:57.790Z,39.97
2022-10-20T03:19:28.435Z,38.83
2022-10-20T03:21:58.087Z,44.65
2022-10-20T03:24:27.947Z,38.42
2022-10-20T03:26:57.646Z,42.95
2022-10-20T03:29:28.362Z,39.03
2022-10-20T03:31:58.244Z,38.92
2022-10-20T03:34:27.955Z,39.15
2022-10-20T03:36:57.649Z,38.03
2022-10-20T03:39:27.241Z,38.97
2022-10-20T03:41:59.368Z,41.03
2022-10-20T03:44:29.388Z,40.17
2022-10-20T03:47:01.549Z,41.42
2022-10-20T03:49:33.016Z,39.38
2022-10-20T03:52:02.866Z,37.20
2022-10-20T03:54:32.621Z,40.83
2022-10-20T03:57:06.792Z,48.83
2022-10-20T03:59:37.927Z,37.70
2022-10-20T04:02:07.807Z,39.88
2022-10-20T04:04:37.561Z,38.00
2022-10-20T04:07:14.103Z,38.75
2022-10-20T04:09:43.864Z,39.72
2022-10-20T04:12:14.505Z,38.63
2022-10-20T04:14:45.262Z,38.08
2022-10-20T04:17:14.890Z,42.92
2022-10-20T04:19:45.522Z,41.53
2022-10-20T04:22:15.612Z,37.13
2022-10-20T04:24:45.410Z,37.55
2022-10-20T04:27:15.115Z,38.60
2022-10-20T04:29:44.837Z,76.55
2022-10-20T04:32:14.490Z,45.17
2022-10-20T04:34:44.270Z,37.83
2022-10-20T04:37:14.741Z,38.58
2022-10-20T04:39:45.443Z,38.83
2022-10-20T04:42:15.435Z,38.22
2022-10-20T04:44:45.273Z,36.20
2022-10-20T04:47:16.418Z,36.50
2022-10-20T04:49:46.027Z,38.30
2022-10-20T04:52:15.995Z,38.88
2022-10-20T04:54:45.682Z,39.30
2022-10-20T04:57:15.709Z,39.80
2022-10-20T04:59:45.296Z,37.13
2022-10-20T05:02:16.398Z,38.63
2022-10-20T05:04:49.589Z,37.97
2022-10-20T05:07:19.365Z,37.90
2022-10-20T05:09:49.785Z,37.28
2022-10-20T05:12:19.494Z,37.88
2022-10-20T05:14:54.557Z,42.03
2022-10-20T05:17:24.241Z,41.35
2022-10-20T05:19:54.284Z,37.78
2022-10-20T05:22:25.009Z,36.25
2022-10-20T05:24:54.634Z,35.05
2022-10-20T05:27:24.804Z,36.20
2022-10-20T05:29:54.572Z,36.83
2022-10-20T05:32:24.294Z,36.10
2022-10-20T05:34:53.806Z,36.03
2022-10-20T05:37:25.358Z,35.95
2022-10-20T05:39:57.032Z,34.60
2022-10-20T05:42:26.632Z,32.88
2022-10-20T05:44:57.704Z,34.72
2022-10-20T05:47:27.291Z,36.22
2022-10-20T05:49:56.957Z,35.08
2022-10-20T05:52:26.686Z,34.53
2022-10-20T05:54:56.413Z,33.65
2022-10-20T05:57:26.161Z,32.78
2022-10-20T05:59:55.933Z,37.40
2022-10-20T06:02:25.574Z,35.20
2022-10-20T06:04:55.244Z,34.70
2022-10-20T06:07:28.349Z,31.35
2022-10-20T06:09:58.065Z,33.75
2022-10-20T06:12:27.757Z,30.58
2022-10-20T06:14:57.368Z,30.80
2022-10-20T06:17:27.512Z,28.35
2022-10-20T06:19:57.552Z,31.27
2022-10-20T06:22:27.207Z,27.25
2022-10-20T06:24:56.929Z,28.02
2022-10-20T06:27:26.779Z,27.85
2022-10-20T06:29:56.453Z,26.05
2022-10-20T06:32:26.018Z,22.00
2022-10-20T06:34:55.631Z,26.88
2022-10-20T06:37:25.379Z,25.40
2022-10-20T06:39:55.059Z,21.80
2022-10-20T06:42:24.720Z,22.48
2022-10-20T06:44:54.441Z,20.90
2022-10-20T06:47:24.271Z,20.25
2022-10-20T06:49:54.016Z,19.50
2022-10-20T06:52:36.187Z,21.13
2022-10-20T06:55:07.199Z,21.75
2022-10-20T06:57:37.625Z,20.17
2022-10-20T07:00:08.151Z,19.52
2022-10-20T07:02:40.133Z,19.42
2022-10-20T07:05:10.188Z,18.80
2022-10-20T07:07:39.796Z,21.08
2022-10-20T07:10:10.985Z,17.42
2022-10-20T07:12:40.809Z,17.92
2022-10-20T07:15:11.683Z,18.17
2022-10-20T07:18:39.789Z,19.25
2022-10-20T07:21:11.913Z,17.85
2022-10-20T07:23:42.912Z,20.52
2022-10-20T07:26:23.778Z,18.48
2022-10-20T07:28:56.549Z,17.70
2022-10-20T07:34:07.232Z,18.35
2022-10-20T07:36:46.131Z,17.33
2022-10-20T07:39:16.190Z,17.38
2022-10-20T07:41:48.777Z,17.48
2022-10-20T07:44:19.090Z,25.02
2022-10-20T07:46:48.825Z,16.77
2022-10-20T07:49:43.540Z,17.15
2022-10-20T07:52:08.568Z,19.98
2022-10-20T07:54:38.332Z,17.58
2022-10-20T07:57:08.022Z,16.65
2022-10-20T07:59:37.958Z,21.67
2022-10-20T08:02:07.741Z,17.02
2022-10-20T08:04:37.454Z,18.42
2022-10-20T08:07:07.151Z,16.45
2022-10-20T08:09:39.640Z,22.65
2022-10-20T08:12:09.340Z,16.75
2022-10-20T08:14:39.842Z,17.00
2022-10-20T08:17:10.452Z,16.85
2022-10-20T08:22:23.012Z,15.13
2022-10-20T08:24:52.709Z,15.27
2022-10-20T08:27:22.464Z,16.00
2022-10-20T08:30:00.331Z,16.38
2022-10-20T08:32:41.947Z,17.02
2022-10-20T08:35:12.212Z,16.17
2022-10-20T08:37:42.378Z,16.65
2022-10-20T08:40:18.875Z,18.52
2022-10-20T08:42:50.491Z,19.20
2022-10-20T08:45:23.629Z,15.88
2022-10-20T08:47:57.303Z,27.88
2022-10-20T08:50:31.074Z,16.02
2022-10-20T08:53:03.555Z,27.73
2022-10-20T08:55:35.288Z,16.83
2022-10-20T08:58:09.489Z,22.08
2022-10-20T09:00:40.814Z,17.35
2022-10-20T09:03:23.854Z,19.63
2022-10-20T09:08:30.118Z,16.35
2022-10-20T09:11:00.506Z,27.52
2022-10-20T09:13:31.770Z,17.30
2022-10-20T09:16:05.139Z,22.40
2022-10-20T09:18:36.055Z,19.17
2022-10-20T09:21:14.757Z,18.20
2022-10-20T09:26:30.823Z,25.40
2022-10-20T09:29:13.874Z,18.48
2022-10-20T09:31:53.851Z,20.58
2022-10-20T09:34:33.071Z,20.67
2022-10-20T09:37:06.215Z,22.23
2022-10-20T09:39:55.706Z,20.92
2022-10-20T09:42:31.595Z,26.00
2022-10-20T09:45:04.983Z,21.40
2022-10-20T09:47:36.727Z,29.73
2022-10-20T09:50:09.457Z,20.35
2022-10-20T09:55:36.104Z,23.90
2022-10-20T09:58:07.682Z,19.90
2022-10-20T10:00:43.085Z,21.95
2022-10-20T10:03:26.489Z,18.42
2022-10-20T10:06:01.533Z,19.20
2022-10-20T10:08:43.489Z,20.58
2022-10-20T10:11:19.916Z,17.73
2022-10-20T10:13:53.024Z,20.85
2022-10-20T10:16:25.703Z,19.08
2022-10-20T10:19:06.217Z,19.85
2022-10-20T10:21:55.943Z,21.08
2022-10-20T10:24:42.751Z,19.77
2022-10-20T10:27:33.087Z,20.63
2022-10-20T10:30:38.631Z,19.20
2022-10-20T10:33:28.950Z,19.85
2022-10-20T10:35:58.824Z,29.33
2022-10-20T10:38:28.118Z,22.33
2022-10-20T10:41:22.768Z,28.40
2022-10-20T10:43:56.370Z,49.53
2022-10-20T10:46:38.215Z,35.25
2022-10-20T10:49:28.491Z,45.70
2022-10-20T10:52:18.775Z,29.63
2022-10-20T10:54:59.100Z,26.83
2022-10-20T10:57:29.667Z,34.83
2022-10-20T11:00:03.778Z,34.92
2022-10-20T11:02:48.900Z,34.20
2022-10-20T11:05:23.330Z,35.35
2022-10-20T11:08:04.297Z,34.97
2022-10-20T11:10:54.616Z,27.05
2022-10-20T11:13:44.874Z,29.20
2022-10-20T11:16:54.409Z,32.00
2022-10-20T11:20:03.845Z,28.85
2022-10-20T11:23:03.291Z,34.17
2022-10-20T11:25:41.097Z,30.58
2022-10-20T11:28:36.811Z,24.42
2022-10-20T11:31:08.034Z,27.13
2022-10-20T11:33:48.134Z,28.58
2022-10-20T11:36:21.258Z,24.33
2022-10-20T11:38:57.956Z,27.92
2022-10-20T11:44:23.271Z,23.95
2022-10-20T11:47:14.879Z,28.02
2022-10-20T11:49:46.212Z,29.83
2022-10-20T11:52:51.013Z,34.85
2022-10-20T11:55:38.058Z,36.75
2022-10-20T11:58:30.873Z,36.63
2022-10-20T12:01:21.220Z,31.48
2022-10-20T12:04:02.948Z,32.83
2022-10-20T12:07:11.327Z,25.05
2022-10-20T12:10:19.760Z,26.63
2022-10-20T12:12:54.436Z,21.50
2022-10-20T12:15:27.967Z,21.98
2022-10-20T12:18:05.144Z,25.90
2022-10-20T12:20:42.876Z,19.70
2022-10-20T12:23:48.696Z,21.48
2022-10-20T12:26:38.744Z,26.38
2022-10-20T12:29:33.744Z,20.83
2022-10-20T12:32:26.234Z,24.40
2022-10-20T12:34:59.639Z,19.40
2022-10-20T12:37:30.334Z,26.17
2022-10-20T12:40:11.522Z,22.00
2022-10-20T12:42:49.272Z,24.58
2022-10-20T12:45:21.379Z,25.83
2022-10-20T12:47:52.871Z,34.43
2022-10-20T12:50:35.347Z,32.03
2022-10-20T12:53:29.433Z,23.40
2022-10-20T12:56:02.589Z,31.38
2022-10-20T12:58:34.795Z,22.25
2022-10-20T13:01:10.383Z,21.58
2022-10-20T13:03:46.649Z,20.05
2022-10-20T13:06:34.656Z,21.25
2022-10-20T13:09:08.614Z,21.02
2022-10-20T13:11:39.904Z,20.38
2022-10-20T13:14:25.256Z,20.88
2022-10-20T13:17:20.952Z,25.70
2022-10-20T13:20:01.928Z,27.25
2022-10-20T13:22:48.051Z,20.90
2022-10-20T13:25:31.174Z,38.30
2022-10-20T13:31:10.287Z,39.85
2022-10-20T13:34:03.166Z,29.02
2022-10-20T13:37:10.129Z,17.60
2022-10-20T13:40:05.291Z,18.58
2022-10-20T13:42:42.788Z,19.25
2022-10-20T13:45:51.271Z,18.30
2022-10-20T13:48:42.850Z,18.67
2022-10-20T13:51:19.779Z,18.48
2022-10-20T13:53:55.724Z,18.20
2022-10-20T13:56:37.173Z,18.60
2022-10-20T13:59:25.517Z,19.00
2022-10-20T14:01:58.030Z,20.95
2022-10-20T14:04:30.706Z,18.58
2022-10-20T14:07:14.519Z,19.45
2022-10-20T14:09:47.509Z,18.73
2022-10-20T14:12:25.783Z,19.05
2022-10-20T14:15:01.654Z,17.25
2022-10-20T14:17:31.487Z,17.58
2022-10-20T14:20:21.474Z,18.38
2022-10-20T14:22:52.357Z,18.52
2022-10-20T14:25:22.973Z,18.83
2022-10-20T14:27:56.135Z,20.05
2022-10-20T14:30:27.989Z,23.52
2022-10-20T14:32:57.619Z,19.23
2022-10-20T14:35:42.687Z,19.83
2022-10-20T14:38:35.583Z,18.45
2022-10-20T14:41:06.092Z,18.33
2022-10-20T14:43:41.950Z,17.98
2022-10-20T14:46:14.584Z,18.90
2022-10-20T14:48:48.306Z,19.35
2022-10-20T14:51:37.995Z,20.27
2022-10-20T14:54:24.248Z,18.27
2022-10-20T14:57:05.538Z,18.38
2022-10-20T14:59:39.924Z,17.77
2022-10-20T15:02:16.558Z,20.17
2022-10-20T15:04:47.123Z,19.35
2022-10-20T15:07:18.414Z,19.80
2022-10-20T15:09:50.991Z,21.90
2022-10-20T15:12:24.738Z,18.75
2022-10-20T15:15:04.364Z,17.83
2022-10-20T15:17:42.916Z,18.08
2022-10-20T15:20:34.574Z,18.73
2022-10-20T15:23:09.405Z,18.13
2022-10-20T15:25:45.419Z,16.83
2022-10-20T15:28:53.882Z,18.25
2022-10-20T15:31:29.161Z,17.52
2022-10-20T15:33:59.547Z,17.40
2022-10-20T15:36:34.454Z,17.67
2022-10-20T15:39:05.140Z,17.50
2022-10-20T15:41:37.525Z,16.88
2022-10-20T15:44:10.886Z,17.67
2022-10-20T15:46:40.231Z,16.45
2022-10-20T15:49:10.721Z,17.65
2022-10-20T15:51:43.074Z,18.10
2022-10-20T15:54:17.190Z,16.85
2022-10-20T15:56:47.297Z,17.17
2022-10-20T15:59:17.775Z,18.23
2022-10-20T16:01:47.086Z,19.10
2022-10-20T16:04:25.504Z,17.73
2022-10-20T16:06:57.892Z,18.58
2022-10-20T16:09:28.566Z,18.30
2022-10-20T16:11:58.887Z,18.80
2022-10-20T16:14:29.064Z,19.17
2022-10-20T16:17:00.338Z,19.00
2022-10-20T16:19:30.826Z,19.75
2022-10-20T16:22:01.100Z,18.67
2022-10-20T16:24:31.547Z,19.10
2022-10-20T16:27:00.861Z,18.58
2022-10-20T16:29:30.155Z,18.65
2022-10-20T16:31:59.898Z,17.45
2022-10-20T16:34:30.725Z,17.85
2022-10-20T16:36:59.936Z,17.17
2022-10-20T16:39:29.402Z,18.30
2022-10-20T16:41:59.752Z,20.02
2022-10-20T16:44:30.242Z,21.42
2022-10-20T16:46:59.764Z,18.80
2022-10-20T16:49:28.997Z,17.58
2022-10-20T16:51:59.355Z,19.60
2022-10-20T16:54:29.760Z,17.58
2022-10-20T16:57:00.186Z,17.80
2022-10-20T17:06:12.714Z,15.18
2022-10-20T17:08:42.900Z,14.35
2022-10-20T17:11:16.318Z,14.88
2022-10-20T17:13:46.039Z,15.00
2022-10-20T17:16:20.724Z,12.95
2022-10-20T17:18:51.921Z,13.30
2022-10-20T17:21:21.113Z,12.48
2022-10-20T17:23:50.385Z,12.75
2022-10-20T17:26:22.988Z,13.55
2022-10-20T17:28:54.600Z,13.05
2022-10-20T17:31:24.693Z,13.40
2022-10-20T17:33:54.593Z,12.60
2022-10-20T17:36:27.506Z,12.63
2022-10-20T17:41:31.075Z,13.02
2022-10-20T17:44:04.840Z,15.20
2022-10-20T17:46:34.889Z,12.25
2022-10-20T17:49:05.448Z,14.32
2022-10-20T17:51:35.221Z,14.02
2022-10-20T17:54:04.996Z,11.70
2022-10-20T17:56:36.939Z,13.00
2022-10-20T17:59:08.870Z,11.98
2022-10-20T18:01:41.519Z,15.90
2022-10-20T18:04:14.441Z,11.95
2022-10-20T18:09:16.505Z,11.30
2022-10-20T18:11:49.180Z,11.43
2022-10-20T18:14:18.461Z,12.13
2022-10-20T18:16:49.197Z,10.88
2022-10-20T18:19:20.765Z,12.95
2022-10-20T18:21:50.176Z,12.27
2022-10-20T18:24:20.731Z,11.60
2022-10-20T18:26:50.236Z,11.52
2022-10-20T18:29:20.616Z,11.73
2022-10-20T18:31:51.362Z,12.77
2022-10-20T18:34:22.467Z,12.15
2022-10-20T18:36:53.241Z,12.20
2022-10-20T18:39:22.958Z,12.02
2022-10-20T18:41:56.929Z,11.77
2022-10-20T18:44:26.761Z,11.80
2022-10-20T18:46:59.822Z,13.48
2022-10-20T18:49:29.371Z,15.45
2022-10-20T18:51:59.757Z,13.00
2022-10-20T18:54:29.596Z,12.18
2022-10-20T18:56:58.898Z,12.88
2022-10-20T18:59:28.583Z,12.75
2022-10-20T19:01:58.765Z,12.63
2022-10-20T19:04:28.054Z,12.60
2022-10-20T19:06:57.294Z,13.05
2022-10-20T19:09:27.672Z,13.05
2022-10-20T19:11:57.060Z,12.93
2022-10-20T19:14:27.461Z,14.57
2022-10-20T19:16:57.786Z,13.20
2022-10-20T19:19:28.014Z,13.50
2022-10-20T19:21:57.269Z,14.93
2022-10-20T19:24:27.821Z,13.68
2022-10-20T19:27:25.127Z,15.23
2022-10-20T19:29:50.153Z,14.30
2022-10-20T19:32:19.519Z,12.68
2022-10-20T19:34:48.852Z,12.38
2022-10-20T19:37:18.396Z,13.02
2022-10-20T19:39:48.066Z,12.50
2022-10-20T19:42:17.228Z,13.50
2022-10-20T19:44:48.330Z,13.55
2022-10-20T19:47:18.219Z,14.13
2022-10-20T19:49:48.531Z,13.43
2022-10-20T19:52:17.840Z,15.07
2022-10-20T19:54:48.094Z,15.15
2022-10-20T19:57:17.418Z,15.60
2022-10-20T19:59:47.786Z,16.48
2022-10-20T20:02:18.023Z,18.02
2022-10-20T20:04:47.311Z,16.00
2022-10-20T20:09:51.961Z,18.67
2022-10-20T20:12:21.439Z,17.42
2022-10-20T20:14:50.728Z,19.55
2022-10-20T20:17:19.994Z,18.77
2022-10-20T20:19:49.361Z,20.08
2022-10-20T20:22:18.729Z,21.45
2022-10-20T20:24:48.065Z,20.50
2022-10-20T20:27:17.324Z,21.55
2022-10-20T20:29:46.570Z,18.38
2022-10-20T20:32:16.545Z,19.67
2022-10-20T20:34:46.010Z,19.65
2022-10-20T20:37:15.329Z,19.80
2022-10-20T20:39:45.697Z,20.77
2022-10-20T20:42:16.128Z,21.25
2022-10-20T20:44:45.842Z,20.85
2022-10-20T20:47:16.078Z,20.25
2022-10-20T20:49:46.471Z,19.13
2022-10-20T20:52:16.670Z,20.70
2022-10-20T20:54:46.791Z,24.38
2022-10-20T20:57:17.243Z,22.15
2022-10-20T20:59:47.503Z,22.73
2022-10-20T21:02:17.239Z,21.83
2022-10-20T21:04:46.961Z,20.40
2022-10-20T21:07:17.191Z,23.08
2022-10-20T21:09:46.877Z,21.25
2022-10-20T21:12:16.162Z,24.10
2022-10-20T21:14:45.404Z,22.52
2022-10-20T21:17:14.620Z,23.77
2022-10-20T21:19:43.948Z,22.48
2022-10-20T21:22:13.193Z,26.05
2022-10-20T21:24:43.810Z,23.70
2022-10-20T21:27:13.146Z,22.98
2022-10-20T21:29:45.581Z,21.23
2022-10-20T21:32:15.622Z,24.50
2022-10-20T21:34:45.174Z,21.88
2022-10-20T21:37:15.429Z,22.77
2022-10-20T21:39:45.790Z,25.15
2022-10-20T21:42:14.938Z,24.05
2022-10-20T21:44:44.759Z,22.70
2022-10-20T21:47:14.078Z,25.17
2022-10-20T21:49:44.379Z,26.67
2022-10-20T21:52:13.654Z,26.05
2022-10-20T21:54:43.369Z,23.08
2022-10-20T21:57:12.625Z,23.52
2022-10-20T21:59:48.291Z,22.80
2022-10-20T22:02:18.767Z,24.77
2022-10-20T22:04:47.994Z,26.33
2022-10-20T22:07:17.201Z,27.10
2022-10-20T22:09:46.410Z,26.88
2022-10-20T22:12:15.615Z,22.17
2022-10-20T22:14:47.254Z,23.20
2022-10-20T22:17:17.810Z,22.00
2022-10-20T22:19:49.232Z,21.60
2022-10-20T22:22:19.644Z,21.63
2022-10-20T22:24:51.850Z,22.88
2022-10-20T22:27:31.439Z,22.73
2022-10-20T22:30:11.602Z,21.02
2022-10-20T22:32:41.089Z,20.08
2022-10-20T22:35:11.733Z,21.02
2022-10-20T22:37:40.951Z,23.80
2022-10-20T22:40:12.048Z,20.70
2022-10-20T22:42:41.663Z,21.25
2022-10-20T22:45:12.019Z,22.35
2022-10-20T22:47:41.252Z,21.00
2022-10-20T22:50:11.585Z,19.55
2022-10-20T22:52:41.870Z,19.95
2022-10-20T22:55:11.224Z,21.33
2022-10-20T22:57:40.944Z,21.55
2022-10-20T23:00:10.802Z,20.70
2022-10-20T23:02:40.322Z,21.50
2022-10-20T23:05:11.844Z,22.20
2022-10-20T23:07:41.502Z,20.52
2022-10-20T23:10:11.174Z,22.73
2022-10-20T23:12:40.731Z,28.55
2022-10-20T23:15:10.827Z,20.90
2022-10-20T23:17:40.531Z,21.10
2022-10-20T23:20:10.417Z,20.95
2022-10-20T23:22:39.688Z,22.02
2022-10-20T23:25:09.270Z,20.13
2022-10-20T23:27:38.983Z,18.15
2022-10-20T23:30:09.045Z,17.15
2022-10-20T23:32:38.274Z,21.13
2022-10-20T23:35:08.136Z,24.30
2022-10-20T23:37:39.844Z,20.33
2022-10-20T23:40:09.899Z,17.35
2022-10-20T23:42:39.116Z,18.75
2022-10-20T23:45:08.751Z,20.17
2022-10-20T23:47:38.135Z,21.88
2022-10-20T23:50:07.785Z,21.70
2022-10-20T23:55:06.516Z,20.98
2022-10-20T23:57:36.043Z,27.60
